sensor_id;sensor_type;location;lat;lon;timestamp;temperature;humidity
38488;DHT22;57384;51.986;4.458;2022-07-29T00:00:14;19.50;46.10
38488;DHT22;57384;51.986;4.458;2022-07-29T00:02:40;19.50;46.10
38488;DHT22;57384;51.986;4.458;2022-07-29T00:05:07;19.50;46.20
38488;DHT22;57384;51.986;4.458;2022-07-29T00:07:34;19.50;46.20
38488;DHT22;57384;51.986;4.458;2022-07-29T00:10:00;19.40;46.20
38488;DHT22;57384;51.986;4.458;2022-07-29T00:12:27;19.50;46.30
38488;DHT22;57384;51.986;4.458;2022-07-29T00:14:53;19.40;46.30
38488;DHT22;57384;51.986;4.458;2022-07-29T00:17:20;19.40;46.40
38488;DHT22;57384;51.986;4.458;2022-07-29T00:19:47;19.40;46.50
38488;DHT22;57384;51.986;4.458;2022-07-29T00:22:14;19.40;46.60
38488;DHT22;57384;51.986;4.458;2022-07-29T00:24:43;19.40;46.60
38488;DHT22;57384;51.986;4.458;2022-07-29T00:27:09;19.40;46.70
38488;DHT22;57384;51.986;4.458;2022-07-29T00:29:36;19.30;47.30
38488;DHT22;57384;51.986;4.458;2022-07-29T00:32:02;19.30;47.30
38488;DHT22;57384;51.986;4.458;2022-07-29T00:34:29;19.30;46.80
38488;DHT22;57384;51.986;4.458;2022-07-29T00:36:56;19.30;46.80
38488;DHT22;57384;51.986;4.458;2022-07-29T00:39:22;19.30;47.40
38488;DHT22;57384;51.986;4.458;2022-07-29T00:41:52;19.20;46.80
38488;DHT22;57384;51.986;4.458;2022-07-29T00:44:18;19.20;46.90
38488;DHT22;57384;51.986;4.458;2022-07-29T00:46:45;19.20;46.90
38488;DHT22;57384;51.986;4.458;2022-07-29T00:49:12;19.20;46.90
38488;DHT22;57384;51.986;4.458;2022-07-29T00:51:38;19.20;47.00
38488;DHT22;57384;51.986;4.458;2022-07-29T00:54:05;19.10;46.90
38488;DHT22;57384;51.986;4.458;2022-07-29T00:56:32;19.10;47.00
38488;DHT22;57384;51.986;4.458;2022-07-29T00:58:59;19.10;47.10
38488;DHT22;57384;51.986;4.458;2022-07-29T01:01:26;19.10;47.20
38488;DHT22;57384;51.986;4.458;2022-07-29T01:03:52;19.10;47.20
38488;DHT22;57384;51.986;4.458;2022-07-29T01:06:19;19.10;47.20
38488;DHT22;57384;51.986;4.458;2022-07-29T01:08:46;19.10;47.30
38488;DHT22;57384;51.986;4.458;2022-07-29T01:11:14;19.00;47.20
38488;DHT22;57384;51.986;4.458;2022-07-29T01:13:42;19.00;47.30
38488;DHT22;57384;51.986;4.458;2022-07-29T01:16:21;19.00;47.40
38488;DHT22;57384;51.986;4.458;2022-07-29T01:18:53;19.00;47.30
38488;DHT22;57384;51.986;4.458;2022-07-29T01:29:07;18.90;47.40
38488;DHT22;57384;51.986;4.458;2022-07-29T01:34:05;18.90;47.50
38488;DHT22;57384;51.986;4.458;2022-07-29T01:36:35;18.90;47.50
38488;DHT22;57384;51.986;4.458;2022-07-29T01:39:06;18.90;47.50
38488;DHT22;57384;51.986;4.458;2022-07-29T01:41:34;18.80;47.50
38488;DHT22;57384;51.986;4.458;2022-07-29T01:44:06;18.80;47.50
38488;DHT22;57384;51.986;4.458;2022-07-29T01:46:37;18.80;47.60
38488;DHT22;57384;51.986;4.458;2022-07-29T01:51:41;18.80;47.70
38488;DHT22;57384;51.986;4.458;2022-07-29T01:56:39;18.70;47.70
38488;DHT22;57384;51.986;4.458;2022-07-29T01:59:07;18.80;47.80
38488;DHT22;57384;51.986;4.458;2022-07-29T02:01:34;18.70;47.80
38488;DHT22;57384;51.986;4.458;2022-07-29T02:04:05;18.70;47.90
38488;DHT22;57384;51.986;4.458;2022-07-29T02:06:33;18.70;47.90
38488;DHT22;57384;51.986;4.458;2022-07-29T02:09:01;18.70;48.00
38488;DHT22;57384;51.986;4.458;2022-07-29T02:11:29;18.60;48.00
38488;DHT22;57384;51.986;4.458;2022-07-29T02:13:56;18.60;48.10
38488;DHT22;57384;51.986;4.458;2022-07-29T02:16:23;18.60;48.10
38488;DHT22;57384;51.986;4.458;2022-07-29T02:18:52;18.60;48.20
38488;DHT22;57384;51.986;4.458;2022-07-29T02:21:21;18.60;48.30
38488;DHT22;57384;51.986;4.458;2022-07-29T02:23:49;18.60;48.40
38488;DHT22;57384;51.986;4.458;2022-07-29T02:26:16;18.50;48.40
38488;DHT22;57384;51.986;4.458;2022-07-29T02:28:43;18.50;48.30
38488;DHT22;57384;51.986;4.458;2022-07-29T02:31:11;18.50;48.40
38488;DHT22;57384;51.986;4.458;2022-07-29T02:33:38;18.50;48.40
38488;DHT22;57384;51.986;4.458;2022-07-29T02:36:06;18.50;48.50
38488;DHT22;57384;51.986;4.458;2022-07-29T02:38:33;18.50;48.60
38488;DHT22;57384;51.986;4.458;2022-07-29T02:41:07;18.50;48.60
38488;DHT22;57384;51.986;4.458;2022-07-29T02:43:35;18.40;48.60
38488;DHT22;57384;51.986;4.458;2022-07-29T02:46:02;18.40;48.70
38488;DHT22;57384;51.986;4.458;2022-07-29T02:48:54;18.40;48.70
38488;DHT22;57384;51.986;4.458;2022-07-29T02:51:25;18.40;48.70
38488;DHT22;57384;51.986;4.458;2022-07-29T02:53:54;18.40;48.80
38488;DHT22;57384;51.986;4.458;2022-07-29T02:56:23;18.30;48.70
38488;DHT22;57384;51.986;4.458;2022-07-29T02:58:54;18.30;48.80
38488;DHT22;57384;51.986;4.458;2022-07-29T03:01:22;18.30;48.90
38488;DHT22;57384;51.986;4.458;2022-07-29T03:03:50;18.20;48.90
38488;DHT22;57384;51.986;4.458;2022-07-29T03:06:18;18.30;49.10
38488;DHT22;57384;51.986;4.458;2022-07-29T03:08:45;18.30;49.20
38488;DHT22;57384;51.986;4.458;2022-07-29T03:11:12;18.20;49.10
38488;DHT22;57384;51.986;4.458;2022-07-29T03:13:39;18.20;49.20
38488;DHT22;57384;51.986;4.458;2022-07-29T03:16:06;18.20;49.20
38488;DHT22;57384;51.986;4.458;2022-07-29T03:18:34;18.20;49.20
38488;DHT22;57384;51.986;4.458;2022-07-29T03:21:01;18.10;49.20
38488;DHT22;57384;51.986;4.458;2022-07-29T03:23:28;18.10;49.20
38488;DHT22;57384;51.986;4.458;2022-07-29T03:25:55;18.10;49.30
38488;DHT22;57384;51.986;4.458;2022-07-29T03:28:22;18.10;49.30
38488;DHT22;57384;51.986;4.458;2022-07-29T03:30:48;18.10;49.30
38488;DHT22;57384;51.986;4.458;2022-07-29T03:33:15;18.10;49.40
38488;DHT22;57384;51.986;4.458;2022-07-29T03:35:42;18.10;49.40
38488;DHT22;57384;51.986;4.458;2022-07-29T03:38:08;18.00;49.40
38488;DHT22;57384;51.986;4.458;2022-07-29T03:40:38;18.00;49.40
38488;DHT22;57384;51.986;4.458;2022-07-29T03:43:06;18.00;49.50
38488;DHT22;57384;51.986;4.458;2022-07-29T03:45:35;18.00;49.50
38488;DHT22;57384;51.986;4.458;2022-07-29T03:48:05;18.00;49.60
38488;DHT22;57384;51.986;4.458;2022-07-29T03:50:33;18.00;49.60
38488;DHT22;57384;51.986;4.458;2022-07-29T03:53:00;18.00;49.60
38488;DHT22;57384;51.986;4.458;2022-07-29T03:55:28;18.00;49.60
38488;DHT22;57384;51.986;4.458;2022-07-29T03:57:54;18.00;49.60
38488;DHT22;57384;51.986;4.458;2022-07-29T04:00:22;17.90;49.60
38488;DHT22;57384;51.986;4.458;2022-07-29T04:02:49;17.90;49.70
38488;DHT22;57384;51.986;4.458;2022-07-29T04:05:16;17.90;49.80
38488;DHT22;57384;51.986;4.458;2022-07-29T04:07:52;17.80;49.80
38488;DHT22;57384;51.986;4.458;2022-07-29T04:10:18;17.80;49.80
38488;DHT22;57384;51.986;4.458;2022-07-29T04:12:45;17.80;49.90
38488;DHT22;57384;51.986;4.458;2022-07-29T04:15:12;17.80;49.90
38488;DHT22;57384;51.986;4.458;2022-07-29T04:17:38;17.80;49.90
38488;DHT22;57384;51.986;4.458;2022-07-29T04:20:05;17.70;49.90
38488;DHT22;57384;51.986;4.458;2022-07-29T04:22:31;17.80;50.00
38488;DHT22;57384;51.986;4.458;2022-07-29T04:24:58;17.80;50.00
38488;DHT22;57384;51.986;4.458;2022-07-29T04:27:25;17.70;50.00
38488;DHT22;57384;51.986;4.458;2022-07-29T04:29:51;17.70;50.00
38488;DHT22;57384;51.986;4.458;2022-07-29T04:32:18;17.70;50.00
38488;DHT22;57384;51.986;4.458;2022-07-29T04:34:44;17.70;50.10
38488;DHT22;57384;51.986;4.458;2022-07-29T04:37:10;17.70;50.10
38488;DHT22;57384;51.986;4.458;2022-07-29T04:39:40;17.70;50.10
38488;DHT22;57384;51.986;4.458;2022-07-29T04:42:06;17.70;50.20
38488;DHT22;57384;51.986;4.458;2022-07-29T04:44:33;17.70;50.10
38488;DHT22;57384;51.986;4.458;2022-07-29T04:46:59;17.70;50.20
38488;DHT22;57384;51.986;4.458;2022-07-29T04:49:26;17.60;50.20
38488;DHT22;57384;51.986;4.458;2022-07-29T04:51:52;17.70;50.40
38488;DHT22;57384;51.986;4.458;2022-07-29T04:54:19;17.60;50.30
38488;DHT22;57384;51.986;4.458;2022-07-29T04:56:45;17.60;50.30
38488;DHT22;57384;51.986;4.458;2022-07-29T04:59:12;17.60;50.30
38488;DHT22;57384;51.986;4.458;2022-07-29T05:01:38;17.60;50.40
38488;DHT22;57384;51.986;4.458;2022-07-29T05:04:05;17.60;50.50
38488;DHT22;57384;51.986;4.458;2022-07-29T05:06:31;17.60;50.50
38488;DHT22;57384;51.986;4.458;2022-07-29T05:08:57;17.60;50.60
38488;DHT22;57384;51.986;4.458;2022-07-29T05:11:24;17.60;50.60
38488;DHT22;57384;51.986;4.458;2022-07-29T05:13:50;17.60;50.60
38488;DHT22;57384;51.986;4.458;2022-07-29T05:16:17;17.60;50.70
38488;DHT22;57384;51.986;4.458;2022-07-29T05:18:43;17.60;50.70
38488;DHT22;57384;51.986;4.458;2022-07-29T05:21:10;17.50;50.70
38488;DHT22;57384;51.986;4.458;2022-07-29T05:23:36;17.60;50.70
38488;DHT22;57384;51.986;4.458;2022-07-29T05:26:03;17.50;50.70
38488;DHT22;57384;51.986;4.458;2022-07-29T05:28:32;17.50;50.70
38488;DHT22;57384;51.986;4.458;2022-07-29T05:30:59;17.60;50.70
38488;DHT22;57384;51.986;4.458;2022-07-29T05:33:25;17.60;50.80
38488;DHT22;57384;51.986;4.458;2022-07-29T05:35:52;17.60;50.70
38488;DHT22;57384;51.986;4.458;2022-07-29T05:38:18;17.60;50.60
38488;DHT22;57384;51.986;4.458;2022-07-29T05:40:44;17.70;50.70
38488;DHT22;57384;51.986;4.458;2022-07-29T05:43:11;17.70;50.60
38488;DHT22;57384;51.986;4.458;2022-07-29T05:45:38;17.80;50.60
38488;DHT22;57384;51.986;4.458;2022-07-29T05:48:05;17.80;50.50
38488;DHT22;57384;51.986;4.458;2022-07-29T05:50:31;17.90;50.40
38488;DHT22;57384;51.986;4.458;2022-07-29T05:52:58;18.00;50.40
38488;DHT22;57384;51.986;4.458;2022-07-29T05:55:24;18.10;50.50
38488;DHT22;57384;51.986;4.458;2022-07-29T05:57:51;18.10;50.40
38488;DHT22;57384;51.986;4.458;2022-07-29T06:00:18;18.20;50.40
38488;DHT22;57384;51.986;4.458;2022-07-29T06:02:44;18.20;50.30
38488;DHT22;57384;51.986;4.458;2022-07-29T06:05:11;18.30;50.30
38488;DHT22;57384;51.986;4.458;2022-07-29T06:07:37;18.40;50.30
38488;DHT22;57384;51.986;4.458;2022-07-29T06:10:04;18.50;50.30
38488;DHT22;57384;51.986;4.458;2022-07-29T06:12:31;18.60;50.40
38488;DHT22;57384;51.986;4.458;2022-07-29T06:14:57;18.70;50.30
38488;DHT22;57384;51.986;4.458;2022-07-29T06:17:23;18.80;50.30
38488;DHT22;57384;51.986;4.458;2022-07-29T06:19:51;18.90;50.30
38488;DHT22;57384;51.986;4.458;2022-07-29T06:22:17;18.90;50.30
38488;DHT22;57384;51.986;4.458;2022-07-29T06:24:44;19.00;50.20
38488;DHT22;57384;51.986;4.458;2022-07-29T06:27:11;19.10;50.20
38488;DHT22;57384;51.986;4.458;2022-07-29T06:29:37;19.20;50.20
38488;DHT22;57384;51.986;4.458;2022-07-29T06:32:04;19.30;50.20
38488;DHT22;57384;51.986;4.458;2022-07-29T06:34:31;19.40;50.20
38488;DHT22;57384;51.986;4.458;2022-07-29T06:36:57;19.40;50.20
38488;DHT22;57384;51.986;4.458;2022-07-29T06:39:24;19.50;50.30
38488;DHT22;57384;51.986;4.458;2022-07-29T06:41:50;19.50;50.20
38488;DHT22;57384;51.986;4.458;2022-07-29T06:44:17;19.60;50.30
38488;DHT22;57384;51.986;4.458;2022-07-29T06:46:44;19.60;50.30
38488;DHT22;57384;51.986;4.458;2022-07-29T06:49:11;19.70;50.30
38488;DHT22;57384;51.986;4.458;2022-07-29T06:51:37;19.80;50.20
38488;DHT22;57384;51.986;4.458;2022-07-29T06:54:04;19.90;50.20
38488;DHT22;57384;51.986;4.458;2022-07-29T06:56:31;20.00;50.10
38488;DHT22;57384;51.986;4.458;2022-07-29T06:58:57;20.10;50.00
38488;DHT22;57384;51.986;4.458;2022-07-29T07:01:24;20.20;49.90
38488;DHT22;57384;51.986;4.458;2022-07-29T07:03:50;20.40;49.80
38488;DHT22;57384;51.986;4.458;2022-07-29T07:06:17;20.50;49.80
38488;DHT22;57384;51.986;4.458;2022-07-29T07:08:43;20.60;49.70
38488;DHT22;57384;51.986;4.458;2022-07-29T07:11:09;20.70;49.60
38488;DHT22;57384;51.986;4.458;2022-07-29T07:13:36;20.80;49.60
38488;DHT22;57384;51.986;4.458;2022-07-29T07:16:03;20.90;49.50
38488;DHT22;57384;51.986;4.458;2022-07-29T07:18:41;21.00;49.50
38488;DHT22;57384;51.986;4.458;2022-07-29T07:21:07;21.10;49.40
38488;DHT22;57384;51.986;4.458;2022-07-29T07:23:34;21.20;49.50
38488;DHT22;57384;51.986;4.458;2022-07-29T07:26:01;21.20;49.50
38488;DHT22;57384;51.986;4.458;2022-07-29T07:28:27;21.30;49.60
38488;DHT22;57384;51.986;4.458;2022-07-29T07:30:53;21.30;49.70
38488;DHT22;57384;51.986;4.458;2022-07-29T07:33:20;21.30;49.70
38488;DHT22;57384;51.986;4.458;2022-07-29T07:35:46;21.40;49.80
38488;DHT22;57384;51.986;4.458;2022-07-29T07:38:13;21.40;49.90
38488;DHT22;57384;51.986;4.458;2022-07-29T07:40:40;21.50;49.90
38488;DHT22;57384;51.986;4.458;2022-07-29T07:43:06;21.50;49.90
38488;DHT22;57384;51.986;4.458;2022-07-29T07:45:33;21.60;49.80
38488;DHT22;57384;51.986;4.458;2022-07-29T07:47:59;21.70;49.70
38488;DHT22;57384;51.986;4.458;2022-07-29T07:50:26;21.80;49.60
38488;DHT22;57384;51.986;4.458;2022-07-29T07:52:53;21.90;49.40
38488;DHT22;57384;51.986;4.458;2022-07-29T07:55:20;22.10;49.30
38488;DHT22;57384;51.986;4.458;2022-07-29T07:57:46;22.30;49.20
38488;DHT22;57384;51.986;4.458;2022-07-29T08:00:14;22.40;49.10
38488;DHT22;57384;51.986;4.458;2022-07-29T08:02:40;22.50;49.00
38488;DHT22;57384;51.986;4.458;2022-07-29T08:05:07;22.60;49.00
38488;DHT22;57384;51.986;4.458;2022-07-29T08:10:23;22.90;48.80
38488;DHT22;57384;51.986;4.458;2022-07-29T08:12:49;23.10;48.70
38488;DHT22;57384;51.986;4.458;2022-07-29T08:15:16;23.20;48.60
38488;DHT22;57384;51.986;4.458;2022-07-29T08:17:42;23.40;48.50
38488;DHT22;57384;51.986;4.458;2022-07-29T08:20:09;23.60;48.40
38488;DHT22;57384;51.986;4.458;2022-07-29T08:22:35;23.80;48.30
38488;DHT22;57384;51.986;4.458;2022-07-29T08:25:02;24.00;48.10
38488;DHT22;57384;51.986;4.458;2022-07-29T08:27:29;24.20;48.00
38488;DHT22;57384;51.986;4.458;2022-07-29T08:29:55;24.40;47.90
38488;DHT22;57384;51.986;4.458;2022-07-29T08:32:22;24.70;47.80
38488;DHT22;57384;51.986;4.458;2022-07-29T08:34:48;24.90;47.60
38488;DHT22;57384;51.986;4.458;2022-07-29T08:37:15;25.10;47.60
38488;DHT22;57384;51.986;4.458;2022-07-29T08:39:41;25.40;47.50
38488;DHT22;57384;51.986;4.458;2022-07-29T08:42:08;25.60;47.50
38488;DHT22;57384;51.986;4.458;2022-07-29T08:44:34;25.90;47.50
38488;DHT22;57384;51.986;4.458;2022-07-29T08:47:01;26.10;47.50
38488;DHT22;57384;51.986;4.458;2022-07-29T08:49:28;26.30;47.40
38488;DHT22;57384;51.986;4.458;2022-07-29T08:51:54;26.60;47.50
38488;DHT22;57384;51.986;4.458;2022-07-29T08:54:21;26.80;47.50
38488;DHT22;57384;51.986;4.458;2022-07-29T08:56:51;26.90;47.50
38488;DHT22;57384;51.986;4.458;2022-07-29T08:59:19;27.10;47.50
38488;DHT22;57384;51.986;4.458;2022-07-29T09:01:46;27.30;47.50
38488;DHT22;57384;51.986;4.458;2022-07-29T09:04:14;27.40;47.40
38488;DHT22;57384;51.986;4.458;2022-07-29T09:06:42;27.60;47.50
38488;DHT22;57384;51.986;4.458;2022-07-29T09:09:09;27.70;47.40
38488;DHT22;57384;51.986;4.458;2022-07-29T09:11:36;27.90;47.40
38488;DHT22;57384;51.986;4.458;2022-07-29T09:14:02;28.00;47.30
38488;DHT22;57384;51.986;4.458;2022-07-29T09:16:50;28.20;47.90
38488;DHT22;57384;51.986;4.458;2022-07-29T09:19:23;28.30;47.20
38488;DHT22;57384;51.986;4.458;2022-07-29T09:21:50;28.40;47.20
38488;DHT22;57384;51.986;4.458;2022-07-29T09:24:36;28.60;47.10
38488;DHT22;57384;51.986;4.458;2022-07-29T09:30:04;28.90;47.00
38488;DHT22;57384;51.986;4.458;2022-07-29T09:32:53;29.00;47.00
38488;DHT22;57384;51.986;4.458;2022-07-29T09:39:05;29.30;46.70
38488;DHT22;57384;51.986;4.458;2022-07-29T09:41:54;29.60;46.60
38488;DHT22;57384;51.986;4.458;2022-07-29T09:44:22;29.70;46.50
38488;DHT22;57384;51.986;4.458;2022-07-29T09:47:12;29.90;46.50
38488;DHT22;57384;51.986;4.458;2022-07-29T09:50:04;30.00;46.30
38488;DHT22;57384;51.986;4.458;2022-07-29T09:52:41;30.20;46.20
38488;DHT22;57384;51.986;4.458;2022-07-29T09:55:10;30.40;46.20
38488;DHT22;57384;51.986;4.458;2022-07-29T09:57:37;30.50;46.10
38488;DHT22;57384;51.986;4.458;2022-07-29T10:00:05;30.70;46.00
38488;DHT22;57384;51.986;4.458;2022-07-29T10:02:32;30.80;46.00
38488;DHT22;57384;51.986;4.458;2022-07-29T10:05:00;31.00;45.90
38488;DHT22;57384;51.986;4.458;2022-07-29T10:07:29;31.10;45.80
38488;DHT22;57384;51.986;4.458;2022-07-29T10:10:08;31.20;46.30
38488;DHT22;57384;51.986;4.458;2022-07-29T10:12:35;31.40;45.70
38488;DHT22;57384;51.986;4.458;2022-07-29T10:15:14;31.60;45.60
38488;DHT22;57384;51.986;4.458;2022-07-29T10:17:41;31.70;45.60
38488;DHT22;57384;51.986;4.458;2022-07-29T10:20:08;31.80;45.50
38488;DHT22;57384;51.986;4.458;2022-07-29T10:22:35;31.90;45.40
38488;DHT22;57384;51.986;4.458;2022-07-29T10:25:02;32.00;45.40
38488;DHT22;57384;51.986;4.458;2022-07-29T10:27:29;32.10;45.30
38488;DHT22;57384;51.986;4.458;2022-07-29T10:29:58;32.10;45.10
38488;DHT22;57384;51.986;4.458;2022-07-29T10:39:53;32.50;44.80
38488;DHT22;57384;51.986;4.458;2022-07-29T10:42:22;32.60;44.70
38488;DHT22;57384;51.986;4.458;2022-07-29T10:44:49;32.70;44.60
38488;DHT22;57384;51.986;4.458;2022-07-29T10:47:20;32.90;44.60
38488;DHT22;57384;51.986;4.458;2022-07-29T10:49:56;32.90;44.50
38488;DHT22;57384;51.986;4.458;2022-07-29T10:52:23;33.10;44.50
38488;DHT22;57384;51.986;4.458;2022-07-29T10:54:50;33.20;44.40
38488;DHT22;57384;51.986;4.458;2022-07-29T10:59:51;33.30;44.20
38488;DHT22;57384;51.986;4.458;2022-07-29T11:07:38;33.40;43.60
38488;DHT22;57384;51.986;4.458;2022-07-29T11:12:58;33.60;43.20
38488;DHT22;57384;51.986;4.458;2022-07-29T11:15:25;33.70;43.10
38488;DHT22;57384;51.986;4.458;2022-07-29T11:20:34;33.90;42.90
38488;DHT22;57384;51.986;4.458;2022-07-29T11:23:01;34.00;42.90
38488;DHT22;57384;51.986;4.458;2022-07-29T11:25:43;34.10;42.80
38488;DHT22;57384;51.986;4.458;2022-07-29T11:28:16;34.30;42.70
38488;DHT22;57384;51.986;4.458;2022-07-29T11:30:47;34.30;42.60
38488;DHT22;57384;51.986;4.458;2022-07-29T11:33:26;34.40;42.50
38488;DHT22;57384;51.986;4.458;2022-07-29T11:36:26;34.50;42.30
38488;DHT22;57384;51.986;4.458;2022-07-29T11:38:46;34.60;42.10
38488;DHT22;57384;51.986;4.458;2022-07-29T11:43:48;34.80;41.80
38488;DHT22;57384;51.986;4.458;2022-07-29T11:46:15;34.90;41.60
38488;DHT22;57384;51.986;4.458;2022-07-29T11:48:42;35.00;41.30
38488;DHT22;57384;51.986;4.458;2022-07-29T11:51:09;35.20;41.20
38488;DHT22;57384;51.986;4.458;2022-07-29T11:53:36;35.30;41.00
38488;DHT22;57384;51.986;4.458;2022-07-29T11:56:03;35.40;40.80
38488;DHT22;57384;51.986;4.458;2022-07-29T11:58:30;35.50;40.50
38488;DHT22;57384;51.986;4.458;2022-07-29T12:00:57;35.60;40.30
38488;DHT22;57384;51.986;4.458;2022-07-29T12:03:28;35.70;40.10
38488;DHT22;57384;51.986;4.458;2022-07-29T12:05:58;36.00;39.90
38488;DHT22;57384;51.986;4.458;2022-07-29T12:08:27;36.00;39.60
38488;DHT22;57384;51.986;4.458;2022-07-29T12:10:53;36.10;39.40
38488;DHT22;57384;51.986;4.458;2022-07-29T12:13:20;36.20;39.10
38488;DHT22;57384;51.986;4.458;2022-07-29T12:15:54;36.40;38.90
38488;DHT22;57384;51.986;4.458;2022-07-29T12:18:20;36.50;38.70
38488;DHT22;57384;51.986;4.458;2022-07-29T12:20:47;36.60;38.50
38488;DHT22;57384;51.986;4.458;2022-07-29T12:23:14;36.70;38.20
38488;DHT22;57384;51.986;4.458;2022-07-29T12:25:41;36.90;38.10
38488;DHT22;57384;51.986;4.458;2022-07-29T12:28:12;37.00;37.90
38488;DHT22;57384;51.986;4.458;2022-07-29T12:30:40;37.20;37.70
38488;DHT22;57384;51.986;4.458;2022-07-29T12:33:11;37.30;37.50
38488;DHT22;57384;51.986;4.458;2022-07-29T12:35:37;37.50;37.40
38488;DHT22;57384;51.986;4.458;2022-07-29T12:38:04;37.60;37.10
38488;DHT22;57384;51.986;4.458;2022-07-29T12:40:31;37.70;37.00
38488;DHT22;57384;51.986;4.458;2022-07-29T12:43:16;37.90;36.90
38488;DHT22;57384;51.986;4.458;2022-07-29T12:45:44;38.00;36.70
38488;DHT22;57384;51.986;4.458;2022-07-29T12:48:11;38.20;36.50
38488;DHT22;57384;51.986;4.458;2022-07-29T12:50:57;38.30;36.30
38488;DHT22;57384;51.986;4.458;2022-07-29T12:53:24;38.30;36.00
38488;DHT22;57384;51.986;4.458;2022-07-29T12:55:51;38.40;35.80
38488;DHT22;57384;51.986;4.458;2022-07-29T13:03:26;38.60;35.20
38488;DHT22;57384;51.986;4.458;2022-07-29T13:05:52;38.70;35.10
38488;DHT22;57384;51.986;4.458;2022-07-29T13:08:21;38.70;34.80
38488;DHT22;57384;51.986;4.458;2022-07-29T13:10:48;38.70;34.50
38488;DHT22;57384;51.986;4.458;2022-07-29T13:13:14;38.80;34.40
38488;DHT22;57384;51.986;4.458;2022-07-29T13:15:42;38.90;34.30
38488;DHT22;57384;51.986;4.458;2022-07-29T13:18:28;38.90;34.10
38488;DHT22;57384;51.986;4.458;2022-07-29T13:20:55;39.00;33.90
38488;DHT22;57384;51.986;4.458;2022-07-29T13:23:20;39.00;33.80
38488;DHT22;57384;51.986;4.458;2022-07-29T13:25:47;39.00;33.80
38488;DHT22;57384;51.986;4.458;2022-07-29T13:28:14;39.10;33.80
38488;DHT22;57384;51.986;4.458;2022-07-29T13:30:41;39.20;33.70
38488;DHT22;57384;51.986;4.458;2022-07-29T13:33:07;39.30;33.60
38488;DHT22;57384;51.986;4.458;2022-07-29T13:35:34;39.30;33.50
38488;DHT22;57384;51.986;4.458;2022-07-29T13:38:02;39.30;33.30
38488;DHT22;57384;51.986;4.458;2022-07-29T13:40:28;39.30;33.10
38488;DHT22;57384;51.986;4.458;2022-07-29T13:42:55;39.40;33.00
38488;DHT22;57384;51.986;4.458;2022-07-29T13:45:20;39.50;32.90
38488;DHT22;57384;51.986;4.458;2022-07-29T13:47:47;39.50;32.70
38488;DHT22;57384;51.986;4.458;2022-07-29T13:50:13;39.60;32.60
38488;DHT22;57384;51.986;4.458;2022-07-29T13:52:40;39.60;32.40
38488;DHT22;57384;51.986;4.458;2022-07-29T13:55:07;39.60;32.30
38488;DHT22;57384;51.986;4.458;2022-07-29T13:57:33;39.70;32.20
38488;DHT22;57384;51.986;4.458;2022-07-29T14:00:00;39.70;32.10
38488;DHT22;57384;51.986;4.458;2022-07-29T14:02:26;39.70;32.00
38488;DHT22;57384;51.986;4.458;2022-07-29T14:04:53;39.70;31.80
38488;DHT22;57384;51.986;4.458;2022-07-29T14:07:20;39.70;31.80
38488;DHT22;57384;51.986;4.458;2022-07-29T14:09:46;39.80;31.60
38488;DHT22;57384;51.986;4.458;2022-07-29T14:12:13;39.80;31.50
38488;DHT22;57384;51.986;4.458;2022-07-29T14:14:39;39.80;31.50
38488;DHT22;57384;51.986;4.458;2022-07-29T14:17:06;39.80;31.30
38488;DHT22;57384;51.986;4.458;2022-07-29T14:19:32;39.70;31.10
38488;DHT22;57384;51.986;4.458;2022-07-29T14:21:59;39.70;31.00
38488;DHT22;57384;51.986;4.458;2022-07-29T14:24:25;39.70;31.00
38488;DHT22;57384;51.986;4.458;2022-07-29T14:26:52;39.60;30.90
38488;DHT22;57384;51.986;4.458;2022-07-29T14:29:18;39.60;30.90
38488;DHT22;57384;51.986;4.458;2022-07-29T14:31:45;39.60;30.80
38488;DHT22;57384;51.986;4.458;2022-07-29T14:34:11;39.70;30.80
38488;DHT22;57384;51.986;4.458;2022-07-29T14:36:38;39.60;30.70
38488;DHT22;57384;51.986;4.458;2022-07-29T14:39:04;39.50;30.60
38488;DHT22;57384;51.986;4.458;2022-07-29T14:41:30;39.50;30.60
38488;DHT22;57384;51.986;4.458;2022-07-29T14:43:57;39.50;30.60
38488;DHT22;57384;51.986;4.458;2022-07-29T14:46:23;39.40;30.40
38488;DHT22;57384;51.986;4.458;2022-07-29T14:48:50;39.40;30.40
38488;DHT22;57384;51.986;4.458;2022-07-29T14:51:16;39.30;30.30
38488;DHT22;57384;51.986;4.458;2022-07-29T14:53:42;39.30;30.30
38488;DHT22;57384;51.986;4.458;2022-07-29T14:56:09;39.20;30.30
38488;DHT22;57384;51.986;4.458;2022-07-29T14:58:35;39.10;30.30
38488;DHT22;57384;51.986;4.458;2022-07-29T15:01:02;38.90;30.20
38488;DHT22;57384;51.986;4.458;2022-07-29T15:03:28;38.80;30.40
38488;DHT22;57384;51.986;4.458;2022-07-29T15:05:55;38.60;30.40
38488;DHT22;57384;51.986;4.458;2022-07-29T15:08:21;38.40;30.40
38488;DHT22;57384;51.986;4.458;2022-07-29T15:10:48;38.10;30.40
38488;DHT22;57384;51.986;4.458;2022-07-29T15:13:14;38.00;30.60
38488;DHT22;57384;51.986;4.458;2022-07-29T15:15:41;37.80;30.70
38488;DHT22;57384;51.986;4.458;2022-07-29T15:18:07;37.60;30.80
38488;DHT22;57384;51.986;4.458;2022-07-29T15:20:34;37.30;30.80
38488;DHT22;57384;51.986;4.458;2022-07-29T15:23:00;37.10;30.90
38488;DHT22;57384;51.986;4.458;2022-07-29T15:25:27;36.90;31.10
38488;DHT22;57384;51.986;4.458;2022-07-29T15:27:53;36.60;31.10
38488;DHT22;57384;51.986;4.458;2022-07-29T15:30:37;36.40;31.30
38488;DHT22;57384;51.986;4.458;2022-07-29T15:33:23;36.20;31.50
38488;DHT22;57384;51.986;4.458;2022-07-29T15:36:09;35.90;31.40
38488;DHT22;57384;51.986;4.458;2022-07-29T15:38:55;35.70;31.50
38488;DHT22;57384;51.986;4.458;2022-07-29T15:41:21;35.50;31.60
38488;DHT22;57384;51.986;4.458;2022-07-29T15:43:48;35.30;31.70
38488;DHT22;57384;51.986;4.458;2022-07-29T15:46:15;35.10;31.80
38488;DHT22;57384;51.986;4.458;2022-07-29T15:48:43;34.90;31.80
38488;DHT22;57384;51.986;4.458;2022-07-29T15:51:09;34.80;32.00
38488;DHT22;57384;51.986;4.458;2022-07-29T15:53:35;34.50;32.00
38488;DHT22;57384;51.986;4.458;2022-07-29T15:56:02;34.40;32.20
38488;DHT22;57384;51.986;4.458;2022-07-29T15:58:32;34.20;32.30
38488;DHT22;57384;51.986;4.458;2022-07-29T16:00:58;34.00;32.40
38488;DHT22;57384;51.986;4.458;2022-07-29T16:03:25;33.80;32.50
38488;DHT22;57384;51.986;4.458;2022-07-29T16:05:51;33.60;32.50
38488;DHT22;57384;51.986;4.458;2022-07-29T16:08:18;33.40;32.70
38488;DHT22;57384;51.986;4.458;2022-07-29T16:10:44;33.30;33.40
38488;DHT22;57384;51.986;4.458;2022-07-29T16:13:11;33.10;32.90
38488;DHT22;57384;51.986;4.458;2022-07-29T16:15:40;32.90;33.00
38488;DHT22;57384;51.986;4.458;2022-07-29T16:18:06;32.70;33.10
38488;DHT22;57384;51.986;4.458;2022-07-29T16:20:33;32.60;33.20
38488;DHT22;57384;51.986;4.458;2022-07-29T16:22:59;32.40;33.30
38488;DHT22;57384;51.986;4.458;2022-07-29T16:25:26;32.20;33.30
38488;DHT22;57384;51.986;4.458;2022-07-29T16:27:52;32.10;33.50